sensor_id;sensor_type;location;lat;lon;timestamp;P1;durP1;ratioP1;P2;durP2;ratioP2
70505;SDS011;58032;49.820;6.274;2023-04-25T00:02:08;12.50;;;5.32;;
70505;SDS011;58032;49.820;6.274;2023-04-25T00:04:35;12.15;;;5.25;;
70505;SDS011;58032;49.820;6.274;2023-04-25T00:07:04;10.17;;;4.97;;
70505;SDS011;58032;49.820;6.274;2023-04-25T00:09:31;10.18;;;5.13;;
70505;SDS011;58032;49.820;6.274;2023-04-25T00:11:59;9.32;;;4.50;;
70505;SDS011;58032;49.820;6.274;2023-04-25T00:14:28;12.32;;;4.75;;
70505;SDS011;58032;49.820;6.274;2023-04-25T00:16:55;12.95;;;4.90;;
70505;SDS011;58032;49.820;6.274;2023-04-25T00:19:22;11.90;;;4.97;;
70505;SDS011;58032;49.820;6.274;2023-04-25T00:21:49;11.02;;;4.72;;
70505;SDS011;58032;49.820;6.274;2023-04-25T00:24:16;11.00;;;5.15;;
70505;SDS011;58032;49.820;6.274;2023-04-25T00:26:43;9.85;;;4.72;;
70505;SDS011;58032;49.820;6.274;2023-04-25T00:29:10;11.13;;;5.30;;
70505;SDS011;58032;49.820;6.274;2023-04-25T00:31:37;9.17;;;4.60;;
70505;SDS011;58032;49.820;6.274;2023-04-25T00:34:04;9.45;;;5.13;;
70505;SDS011;58032;49.820;6.274;2023-04-25T00:36:32;11.75;;;5.22;;
70505;SDS011;58032;49.820;6.274;2023-04-25T00:38:59;10.60;;;4.82;;
70505;SDS011;58032;49.820;6.274;2023-04-25T00:41:26;10.63;;;5.28;;
70505;SDS011;58032;49.820;6.274;2023-04-25T00:43:53;11.13;;;5.10;;
70505;SDS011;58032;49.820;6.274;2023-04-25T00:46:22;12.45;;;5.03;;
70505;SDS011;58032;49.820;6.274;2023-04-25T00:48:49;13.77;;;5.28;;
70505;SDS011;58032;49.820;6.274;2023-04-25T00:51:20;13.05;;;5.50;;
70505;SDS011;58032;49.820;6.274;2023-04-25T00:53:49;12.18;;;5.57;;
70505;SDS011;58032;49.820;6.274;2023-04-25T00:56:16;11.97;;;6.17;;
70505;SDS011;58032;49.820;6.274;2023-04-25T00:58:44;11.32;;;5.20;;
70505;SDS011;58032;49.820;6.274;2023-04-25T01:01:11;11.18;;;5.18;;
70505;SDS011;58032;49.820;6.274;2023-04-25T01:03:39;12.65;;;5.53;;
70505;SDS011;58032;49.820;6.274;2023-04-25T01:06:10;12.98;;;5.78;;
70505;SDS011;58032;49.820;6.274;2023-04-25T01:08:37;12.23;;;5.80;;
70505;SDS011;58032;49.820;6.274;2023-04-25T01:11:06;11.23;;;5.28;;
70505;SDS011;58032;49.820;6.274;2023-04-25T01:13:33;12.48;;;5.68;;
70505;SDS011;58032;49.820;6.274;2023-04-25T01:16:01;11.80;;;5.55;;
70505;SDS011;58032;49.820;6.274;2023-04-25T01:18:29;11.65;;;6.00;;
70505;SDS011;58032;49.820;6.274;2023-04-25T01:20:56;11.63;;;6.00;;
70505;SDS011;58032;49.820;6.274;2023-04-25T01:23:33;12.68;;;5.85;;
70505;SDS011;58032;49.820;6.274;2023-04-25T01:26:00;13.40;;;6.63;;
70505;SDS011;58032;49.820;6.274;2023-04-25T01:28:28;13.45;;;6.32;;
70505;SDS011;58032;49.820;6.274;2023-04-25T01:30:56;12.60;;;6.30;;
70505;SDS011;58032;49.820;6.274;2023-04-25T01:33:24;14.03;;;6.30;;
70505;SDS011;58032;49.820;6.274;2023-04-25T01:35:51;12.15;;;6.10;;
70505;SDS011;58032;49.820;6.274;2023-04-25T01:38:19;13.30;;;6.13;;
70505;SDS011;58032;49.820;6.274;2023-04-25T01:40:46;13.93;;;6.40;;
70505;SDS011;58032;49.820;6.274;2023-04-25T01:43:18;13.07;;;6.35;;
70505;SDS011;58032;49.820;6.274;2023-04-25T01:45:45;10.93;;;5.43;;
70505;SDS011;58032;49.820;6.274;2023-04-25T01:48:13;10.55;;;5.03;;
70505;SDS011;58032;49.820;6.274;2023-04-25T01:50:42;12.77;;;5.28;;
70505;SDS011;58032;49.820;6.274;2023-04-25T01:53:11;13.00;;;5.88;;
70505;SDS011;58032;49.820;6.274;2023-04-25T01:55:42;12.07;;;4.88;;
70505;SDS011;58032;49.820;6.274;2023-04-25T01:58:12;10.57;;;5.17;;
70505;SDS011;58032;49.820;6.274;2023-04-25T02:00:58;9.77;;;5.07;;
70505;SDS011;58032;49.820;6.274;2023-04-25T02:03:31;15.80;;;5.10;;
70505;SDS011;58032;49.820;6.274;2023-04-25T02:05:59;11.75;;;5.00;;
70505;SDS011;58032;49.820;6.274;2023-04-25T02:08:28;10.60;;;4.72;;
70505;SDS011;58032;49.820;6.274;2023-04-25T02:10:54;10.40;;;4.70;;
70505;SDS011;58032;49.820;6.274;2023-04-25T02:13:23;10.00;;;4.68;;
70505;SDS011;58032;49.820;6.274;2023-04-25T02:16:03;9.43;;;4.93;;
70505;SDS011;58032;49.820;6.274;2023-04-25T02:18:30;9.73;;;4.30;;
70505;SDS011;58032;49.820;6.274;2023-04-25T02:20:58;10.55;;;5.00;;
70505;SDS011;58032;49.820;6.274;2023-04-25T02:23:26;11.27;;;4.57;;
70505;SDS011;58032;49.820;6.274;2023-04-25T02:25:53;11.73;;;4.43;;
70505;SDS011;58032;49.820;6.274;2023-04-25T02:28:21;11.05;;;4.78;;
70505;SDS011;58032;49.820;6.274;2023-04-25T02:30:48;9.02;;;4.53;;
70505;SDS011;58032;49.820;6.274;2023-04-25T02:33:15;12.57;;;5.82;;
70505;SDS011;58032;49.820;6.274;2023-04-25T02:35:43;10.50;;;5.17;;
70505;SDS011;58032;49.820;6.274;2023-04-25T02:38:10;11.25;;;5.30;;
70505;SDS011;58032;49.820;6.274;2023-04-25T02:40:39;10.98;;;4.50;;
70505;SDS011;58032;49.820;6.274;2023-04-25T02:43:07;12.57;;;5.07;;
70505;SDS011;58032;49.820;6.274;2023-04-25T02:45:34;11.98;;;4.60;;
70505;SDS011;58032;49.820;6.274;2023-04-25T02:48:02;10.83;;;4.80;;
70505;SDS011;58032;49.820;6.274;2023-04-25T02:50:31;11.30;;;4.50;;
70505;SDS011;58032;49.820;6.274;2023-04-25T02:52:58;10.85;;;4.72;;
70505;SDS011;58032;49.820;6.274;2023-04-25T02:55:31;9.57;;;4.63;;
70505;SDS011;58032;49.820;6.274;2023-04-25T02:58:00;10.15;;;4.32;;
70505;SDS011;58032;49.820;6.274;2023-04-25T03:00:37;8.30;;;3.80;;
70505;SDS011;58032;49.820;6.274;2023-04-25T03:03:03;8.90;;;4.25;;
70505;SDS011;58032;49.820;6.274;2023-04-25T03:05:30;9.57;;;4.03;;
70505;SDS011;58032;49.820;6.274;2023-04-25T03:07:58;9.05;;;4.10;;
70505;SDS011;58032;49.820;6.274;2023-04-25T03:10:26;10.10;;;4.28;;
70505;SDS011;58032;49.820;6.274;2023-04-25T03:12:53;8.80;;;4.07;;
70505;SDS011;58032;49.820;6.274;2023-04-25T03:15:20;9.70;;;4.18;;
70505;SDS011;58032;49.820;6.274;2023-04-25T03:17:47;8.20;;;4.20;;
70505;SDS011;58032;49.820;6.274;2023-04-25T03:20:14;8.85;;;4.13;;
70505;SDS011;58032;49.820;6.274;2023-04-25T03:22:41;10.15;;;4.55;;
70505;SDS011;58032;49.820;6.274;2023-04-25T03:25:08;9.23;;;4.20;;
70505;SDS011;58032;49.820;6.274;2023-04-25T03:27:35;8.27;;;4.10;;
70505;SDS011;58032;49.820;6.274;2023-04-25T03:30:02;9.88;;;4.50;;
70505;SDS011;58032;49.820;6.274;2023-04-25T03:32:30;9.52;;;4.57;;
70505;SDS011;58032;49.820;6.274;2023-04-25T03:34:57;9.90;;;3.95;;
70505;SDS011;58032;49.820;6.274;2023-04-25T03:37:26;7.67;;;4.13;;
70505;SDS011;58032;49.820;6.274;2023-04-25T03:39:53;11.55;;;4.88;;
70505;SDS011;58032;49.820;6.274;2023-04-25T03:42:22;10.80;;;4.65;;
70505;SDS011;58032;49.820;6.274;2023-04-25T03:44:50;9.82;;;4.63;;
70505;SDS011;58032;49.820;6.274;2023-04-25T03:47:18;10.38;;;4.43;;
70505;SDS011;58032;49.820;6.274;2023-04-25T03:49:46;9.67;;;4.03;;
70505;SDS011;58032;49.820;6.274;2023-04-25T03:52:14;10.32;;;5.35;;
70505;SDS011;58032;49.820;6.274;2023-04-25T03:54:41;12.48;;;5.05;;
70505;SDS011;58032;49.820;6.274;2023-04-25T03:57:14;11.60;;;5.15;;
70505;SDS011;58032;49.820;6.274;2023-04-25T03:59:42;11.38;;;4.78;;
70505;SDS011;58032;49.820;6.274;2023-04-25T04:02:11;11.53;;;5.20;;
70505;SDS011;58032;49.820;6.274;2023-04-25T04:04:39;12.60;;;5.60;;
70505;SDS011;58032;49.820;6.274;2023-04-25T04:07:05;14.40;;;5.85;;
70505;SDS011;58032;49.820;6.274;2023-04-25T04:09:35;10.18;;;4.20;;
70505;SDS011;58032;49.820;6.274;2023-04-25T04:12:07;10.02;;;4.80;;
70505;SDS011;58032;49.820;6.274;2023-04-25T04:14:35;11.37;;;5.03;;
70505;SDS011;58032;49.820;6.274;2023-04-25T04:17:03;11.40;;;4.75;;
70505;SDS011;58032;49.820;6.274;2023-04-25T04:19:29;11.48;;;5.22;;
70505;SDS011;58032;49.820;6.274;2023-04-25T04:22:23;11.75;;;5.38;;
70505;SDS011;58032;49.820;6.274;2023-04-25T04:24:53;11.13;;;5.05;;
70505;SDS011;58032;49.820;6.274;2023-04-25T04:27:37;10.30;;;4.70;;
70505;SDS011;58032;49.820;6.274;2023-04-25T04:30:27;13.25;;;5.10;;
70505;SDS011;58032;49.820;6.274;2023-04-25T04:32:59;11.23;;;4.93;;
70505;SDS011;58032;49.820;6.274;2023-04-25T04:35:27;12.15;;;5.05;;
70505;SDS011;58032;49.820;6.274;2023-04-25T04:37:54;10.35;;;4.53;;
70505;SDS011;58032;49.820;6.274;2023-04-25T04:40:24;12.07;;;5.07;;
70505;SDS011;58032;49.820;6.274;2023-04-25T04:43:05;10.80;;;4.57;;
70505;SDS011;58032;49.820;6.274;2023-04-25T04:45:42;10.50;;;4.80;;
70505;SDS011;58032;49.820;6.274;2023-04-25T04:48:32;12.48;;;5.03;;
70505;SDS011;58032;49.820;6.274;2023-04-25T04:51:19;16.95;;;5.10;;
70505;SDS011;58032;49.820;6.274;2023-04-25T04:53:53;10.23;;;5.00;;
70505;SDS011;58032;49.820;6.274;2023-04-25T04:56:41;11.07;;;4.75;;
70505;SDS011;58032;49.820;6.274;2023-04-25T04:59:31;11.95;;;5.20;;
70505;SDS011;58032;49.820;6.274;2023-04-25T05:02:06;11.20;;;4.82;;
70505;SDS011;58032;49.820;6.274;2023-04-25T05:04:49;10.40;;;5.03;;
70505;SDS011;58032;49.820;6.274;2023-04-25T05:07:36;11.60;;;5.30;;
70505;SDS011;58032;49.820;6.274;2023-04-25T05:10:19;11.18;;;5.57;;
70505;SDS011;58032;49.820;6.274;2023-04-25T05:13:02;11.00;;;5.18;;
70505;SDS011;58032;49.820;6.274;2023-04-25T05:15:52;10.35;;;4.78;;
70505;SDS011;58032;49.820;6.274;2023-04-25T05:18:47;11.43;;;4.97;;
70505;SDS011;58032;49.820;6.274;2023-04-25T05:21:47;15.33;;;5.87;;
70505;SDS011;58032;49.820;6.274;2023-04-25T05:24:26;12.48;;;5.90;;
70505;SDS011;58032;49.820;6.274;2023-04-25T05:27:12;11.38;;;5.70;;
70505;SDS011;58032;49.820;6.274;2023-04-25T05:30:08;11.93;;;5.22;;
70505;SDS011;58032;49.820;6.274;2023-04-25T05:32:52;11.45;;;5.15;;
70505;SDS011;58032;49.820;6.274;2023-04-25T05:35:19;15.50;;;6.00;;
70505;SDS011;58032;49.820;6.274;2023-04-25T05:37:47;14.07;;;6.00;;
70505;SDS011;58032;49.820;6.274;2023-04-25T05:40:14;13.23;;;5.93;;
70505;SDS011;58032;49.820;6.274;2023-04-25T05:43:00;11.85;;;6.20;;
70505;SDS011;58032;49.820;6.274;2023-04-25T05:45:57;12.57;;;5.93;;
70505;SDS011;58032;49.820;6.274;2023-04-25T05:48:24;11.87;;;5.40;;
70505;SDS011;58032;49.820;6.274;2023-04-25T05:50:59;12.07;;;5.75;;
70505;SDS011;58032;49.820;6.274;2023-04-25T05:53:46;13.32;;;5.43;;
70505;SDS011;58032;49.820;6.274;2023-04-25T05:56:14;12.60;;;5.88;;
70505;SDS011;58032;49.820;6.274;2023-04-25T05:58:41;14.57;;;6.18;;
70505;SDS011;58032;49.820;6.274;2023-04-25T06:01:10;9.87;;;4.17;;
70505;SDS011;58032;49.820;6.274;2023-04-25T06:03:39;11.88;;;5.47;;
70505;SDS011;58032;49.820;6.274;2023-04-25T06:06:09;12.40;;;4.72;;
70505;SDS011;58032;49.820;6.274;2023-04-25T06:08:37;9.02;;;3.90;;
70505;SDS011;58032;49.820;6.274;2023-04-25T06:11:04;7.25;;;2.38;;
70505;SDS011;58032;49.820;6.274;2023-04-25T06:13:32;8.73;;;3.67;;
70505;SDS011;58032;49.820;6.274;2023-04-25T06:16:00;9.13;;;2.95;;
70505;SDS011;58032;49.820;6.274;2023-04-25T06:18:27;11.93;;;4.13;;
70505;SDS011;58032;49.820;6.274;2023-04-25T06:20:54;8.10;;;3.42;;
70505;SDS011;58032;49.820;6.274;2023-04-25T06:23:22;15.07;;;3.75;;
70505;SDS011;58032;49.820;6.274;2023-04-25T06:26:00;9.03;;;3.73;;
70505;SDS011;58032;49.820;6.274;2023-04-25T06:28:27;12.88;;;2.63;;
70505;SDS011;58032;49.820;6.274;2023-04-25T06:30:54;11.02;;;3.80;;
70505;SDS011;58032;49.820;6.274;2023-04-25T06:33:22;10.40;;;4.00;;
70505;SDS011;58032;49.820;6.274;2023-04-25T06:35:51;11.70;;;3.55;;
70505;SDS011;58032;49.820;6.274;2023-04-25T06:38:22;14.43;;;3.00;;
70505;SDS011;58032;49.820;6.274;2023-04-25T06:40:51;13.40;;;3.60;;
70505;SDS011;58032;49.820;6.274;2023-04-25T06:43:18;14.57;;;3.38;;
70505;SDS011;58032;49.820;6.274;2023-04-25T06:45:48;10.10;;;3.90;;
70505;SDS011;58032;49.820;6.274;2023-04-25T06:48:15;10.48;;;3.67;;
70505;SDS011;58032;49.820;6.274;2023-04-25T06:50:42;11.53;;;4.00;;
70505;SDS011;58032;49.820;6.274;2023-04-25T06:53:11;13.93;;;4.28;;
70505;SDS011;58032;49.820;6.274;2023-04-25T06:55:39;11.48;;;3.38;;
70505;SDS011;58032;49.820;6.274;2023-04-25T06:58:32;14.27;;;4.05;;
70505;SDS011;58032;49.820;6.274;2023-04-25T07:01:08;8.73;;;2.90;;
70505;SDS011;58032;49.820;6.274;2023-04-25T07:03:35;12.33;;;4.23;;
70505;SDS011;58032;49.820;6.274;2023-04-25T07:06:08;11.38;;;3.28;;
70505;SDS011;58032;49.820;6.274;2023-04-25T07:08:35;12.90;;;4.95;;
70505;SDS011;58032;49.820;6.274;2023-04-25T07:11:01;12.65;;;3.33;;
70505;SDS011;58032;49.820;6.274;2023-04-25T07:13:28;5.40;;;2.47;;
70505;SDS011;58032;49.820;6.274;2023-04-25T07:15:56;6.17;;;2.57;;
70505;SDS011;58032;49.820;6.274;2023-04-25T07:18:23;11.77;;;3.88;;
70505;SDS011;58032;49.820;6.274;2023-04-25T07:20:51;11.32;;;3.95;;
70505;SDS011;58032;49.820;6.274;2023-04-25T07:23:18;7.10;;;2.13;;
70505;SDS011;58032;49.820;6.274;2023-04-25T07:25:46;6.30;;;2.80;;
70505;SDS011;58032;49.820;6.274;2023-04-25T07:28:17;10.47;;;4.23;;
70505;SDS011;58032;49.820;6.274;2023-04-25T07:30:46;9.73;;;3.55;;
70505;SDS011;58032;49.820;6.274;2023-04-25T07:33:13;10.95;;;3.67;;
70505;SDS011;58032;49.820;6.274;2023-04-25T07:35:40;6.90;;;2.88;;
70505;SDS011;58032;49.820;6.274;2023-04-25T07:38:07;8.95;;;3.22;;
70505;SDS011;58032;49.820;6.274;2023-04-25T07:40:34;8.60;;;3.40;;
70505;SDS011;58032;49.820;6.274;2023-04-25T07:43:05;5.10;;;2.22;;
70505;SDS011;58032;49.820;6.274;2023-04-25T07:45:40;11.73;;;2.60;;
70505;SDS011;58032;49.820;6.274;2023-04-25T07:48:07;6.30;;;2.70;;
70505;SDS011;58032;49.820;6.274;2023-04-25T07:50:36;27.15;;;3.30;;
70505;SDS011;58032;49.820;6.274;2023-04-25T07:53:03;7.33;;;2.93;;
70505;SDS011;58032;49.820;6.274;2023-04-25T07:55:35;9.88;;;3.72;;
70505;SDS011;58032;49.820;6.274;2023-04-25T07:58:08;9.88;;;4.05;;
70505;SDS011;58032;49.820;6.274;2023-04-25T08:00:39;8.02;;;2.35;;
70505;SDS011;58032;49.820;6.274;2023-04-25T08:03:36;9.90;;;3.63;;
70505;SDS011;58032;49.820;6.274;2023-04-25T08:06:08;10.13;;;3.63;;
70505;SDS011;58032;49.820;6.274;2023-04-25T08:08:46;5.15;;;2.33;;
70505;SDS011;58032;49.820;6.274;2023-04-25T08:11:16;8.15;;;3.28;;
70505;SDS011;58032;49.820;6.274;2023-04-25T08:13:43;13.52;;;3.67;;
70505;SDS011;58032;49.820;6.274;2023-04-25T08:16:11;8.38;;;2.88;;
70505;SDS011;58032;49.820;6.274;2023-04-25T08:18:38;7.60;;;3.23;;
70505;SDS011;58032;49.820;6.274;2023-04-25T08:21:05;11.18;;;2.70;;
70505;SDS011;58032;49.820;6.274;2023-04-25T08:23:33;10.52;;;2.97;;
70505;SDS011;58032;49.820;6.274;2023-04-25T08:26:09;7.72;;;2.60;;
70505;SDS011;58032;49.820;6.274;2023-04-25T08:28:37;8.98;;;3.30;;
70505;SDS011;58032;49.820;6.274;2023-04-25T08:31:04;6.32;;;1.98;;
70505;SDS011;58032;49.820;6.274;2023-04-25T08:33:39;6.80;;;2.78;;
70505;SDS011;58032;49.820;6.274;2023-04-25T08:36:35;9.43;;;2.60;;
70505;SDS011;58032;49.820;6.274;2023-04-25T08:39:12;6.38;;;2.00;;
70505;SDS011;58032;49.820;6.274;2023-04-25T08:41:48;8.80;;;2.30;;
70505;SDS011;58032;49.820;6.274;2023-04-25T08:44:16;8.70;;;2.70;;
70505;SDS011;58032;49.820;6.274;2023-04-25T08:46:43;8.73;;;2.53;;
70505;SDS011;58032;49.820;6.274;2023-04-25T08:49:25;5.37;;;2.63;;
70505;SDS011;58032;49.820;6.274;2023-04-25T08:51:52;7.32;;;2.60;;
70505;SDS011;58032;49.820;6.274;2023-04-25T08:54:23;5.07;;;1.73;;
70505;SDS011;58032;49.820;6.274;2023-04-25T08:56:57;6.90;;;2.47;;
70505;SDS011;58032;49.820;6.274;2023-04-25T08:59:31;6.63;;;1.83;;
70505;SDS011;58032;49.820;6.274;2023-04-25T09:02:00;5.43;;;1.80;;
70505;SDS011;58032;49.820;6.274;2023-04-25T09:04:27;6.13;;;2.10;;
70505;SDS011;58032;49.820;6.274;2023-04-25T09:06:54;7.47;;;2.45;;
70505;SDS011;58032;49.820;6.274;2023-04-25T09:09:21;3.75;;;1.27;;
70505;SDS011;58032;49.820;6.274;2023-04-25T09:11:48;5.93;;;2.00;;
70505;SDS011;58032;49.820;6.274;2023-04-25T09:14:19;5.43;;;2.13;;
70505;SDS011;58032;49.820;6.274;2023-04-25T09:17:17;7.47;;;2.08;;
70505;SDS011;58032;49.820;6.274;2023-04-25T09:19:51;6.32;;;2.33;;
70505;SDS011;58032;49.820;6.274;2023-04-25T09:22:22;6.55;;;1.98;;
70505;SDS011;58032;49.820;6.274;2023-04-25T09:24:49;7.32;;;2.25;;
70505;SDS011;58032;49.820;6.274;2023-04-25T09:27:19;9.27;;;2.37;;
70505;SDS011;58032;49.820;6.274;2023-04-25T09:29:59;6.68;;;2.35;;
70505;SDS011;58032;49.820;6.274;2023-04-25T09:32:32;6.00;;;2.50;;
70505;SDS011;58032;49.820;6.274;2023-04-25T09:34:59;5.90;;;2.00;;
70505;SDS011;58032;49.820;6.274;2023-04-25T09:37:29;8.00;;;2.47;;
70505;SDS011;58032;49.820;6.274;2023-04-25T09:40:15;9.43;;;2.67;;
70505;SDS011;58032;49.820;6.274;2023-04-25T09:42:53;6.40;;;2.25;;
70505;SDS011;58032;49.820;6.274;2023-04-25T09:45:20;6.35;;;2.08;;
70505;SDS011;58032;49.820;6.274;2023-04-25T09:47:48;8.50;;;2.42;;
70505;SDS011;58032;49.820;6.274;2023-04-25T09:50:22;8.25;;;2.30;;
70505;SDS011;58032;49.820;6.274;2023-04-25T09:53:03;8.30;;;2.30;;
70505;SDS011;58032;49.820;6.274;2023-04-25T09:55:48;4.75;;;1.75;;
70505;SDS011;58032;49.820;6.274;2023-04-25T09:58:14;6.35;;;2.42;;
70505;SDS011;58032;49.820;6.274;2023-04-25T10:00:42;4.28;;;1.50;;
70505;SDS011;58032;49.820;6.274;2023-04-25T10:03:22;5.80;;;2.00;;
70505;SDS011;58032;49.820;6.274;2023-04-25T10:06:14;5.63;;;1.87;;
70505;SDS011;58032;49.820;6.274;2023-04-25T10:08:49;7.63;;;1.98;;
70505;SDS011;58032;49.820;6.274;2023-04-25T10:11:17;4.72;;;1.83;;
70505;SDS011;58032;49.820;6.274;2023-04-25T10:13:45;6.88;;;2.08;;
70505;SDS011;58032;49.820;6.274;2023-04-25T10:16:12;3.63;;;1.42;;
70505;SDS011;58032;49.820;6.274;2023-04-25T10:18:39;6.27;;;1.83;;
70505;SDS011;58032;49.820;6.274;2023-04-25T10:21:06;6.80;;;2.00;;
70505;SDS011;58032;49.820;6.274;2023-04-25T10:23:33;5.90;;;2.20;;
70505;SDS011;58032;49.820;6.274;2023-04-25T10:26:01;5.97;;;1.92;;
70505;SDS011;58032;49.820;6.274;2023-04-25T10:28:28;10.90;;;1.90;;
70505;SDS011;58032;49.820;6.274;2023-04-25T10:31:02;4.93;;;1.70;;
70505;SDS011;58032;49.820;6.274;2023-04-25T10:33:37;5.25;;;2.00;;
70505;SDS011;58032;49.820;6.274;2023-04-25T10:38:37;6.68;;;1.83;;
70505;SDS011;58032;49.820;6.274;2023-04-25T10:41:05;6.75;;;2.15;;
70505;SDS011;58032;49.820;6.274;2023-04-25T10:43:36;8.13;;;1.87;;
70505;SDS011;58032;49.820;6.274;2023-04-25T10:46:13;4.85;;;1.73;;
70505;SDS011;58032;49.820;6.274;2023-04-25T10:48:52;4.90;;;1.63;;
70505;SDS011;58032;49.820;6.274;2023-04-25T10:51:31;5.35;;;1.55;;
70505;SDS011;58032;49.820;6.274;2023-04-25T10:54:06;5.93;;;1.98;;
70505;SDS011;58032;49.820;6.274;2023-04-25T10:56:39;5.93;;;1.57;;
70505;SDS011;58032;49.820;6.274;2023-04-25T10:59:11;6.30;;;1.73;;
70505;SDS011;58032;49.820;6.274;2023-04-25T11:09:33;9.27;;;2.00;;
70505;SDS011;58032;49.820;6.274;2023-04-25T11:12:01;7.50;;;1.92;;
70505;SDS011;58032;49.820;6.274;2023-04-25T11:14:28;7.68;;;2.15;;
70505;SDS011;58032;49.820;6.274;2023-04-25T11:16:56;6.93;;;1.73;;
70505;SDS011;58032;49.820;6.274;2023-04-25T11:19:25;7.53;;;2.05;;
70505;SDS011;58032;49.820;6.274;2023-04-25T11:21:56;3.33;;;1.10;;
70505;SDS011;58032;49.820;6.274;2023-04-25T11:24:27;4.75;;;2.05;;
70505;SDS011;58032;49.820;6.274;2023-04-25T11:26:56;8.73;;;1.88;;
70505;SDS011;58032;49.820;6.274;2023-04-25T11:29:31;4.95;;;1.58;;
70505;SDS011;58032;49.820;6.274;2023-04-25T11:31:59;6.10;;;1.80;;
70505;SDS011;58032;49.820;6.274;2023-04-25T11:34:28;6.77;;;2.33;;
70505;SDS011;58032;49.820;6.274;2023-04-25T11:36:57;2.97;;;1.23;;
70505;SDS011;58032;49.820;6.274;2023-04-25T11:39:25;5.47;;;1.92;;
70505;SDS011;58032;49.820;6.274;2023-04-25T11:41:52;5.80;;;1.85;;
70505;SDS011;58032;49.820;6.274;2023-04-25T11:44:20;8.65;;;1.50;;
70505;SDS011;58032;49.820;6.274;2023-04-25T11:46:48;5.72;;;1.63;;
70505;SDS011;58032;49.820;6.274;2023-04-25T11:49:15;6.20;;;1.92;;
70505;SDS011;58032;49.820;6.274;2023-04-25T11:51:45;6.53;;;1.70;;
70505;SDS011;58032;49.820;6.274;2023-04-25T11:54:14;10.63;;;3.05;;
70505;SDS011;58032;49.820;6.274;2023-04-25T11:56:44;5.80;;;2.00;;
70505;SDS011;58032;49.820;6.274;2023-04-25T11:59:11;8.33;;;2.70;;
70505;SDS011;58032;49.820;6.274;2023-04-25T12:01:40;5.63;;;1.83;;
70505;SDS011;58032;49.820;6.274;2023-04-25T12:04:15;6.63;;;2.50;;
70505;SDS011;58032;49.820;6.274;2023-04-25T12:06:47;8.10;;;2.40;;
70505;SDS011;58032;49.820;6.274;2023-04-25T12:09:17;6.78;;;1.85;;
70505;SDS011;58032;49.820;6.274;2023-04-25T12:11:46;4.47;;;1.87;;
70505;SDS011;58032;49.820;6.274;2023-04-25T12:17:16;6.38;;;1.45;;
70505;SDS011;58032;49.820;6.274;2023-04-25T12:19:43;7.15;;;1.80;;
70505;SDS011;58032;49.820;6.274;2023-04-25T12:22:21;9.45;;;1.90;;
70505;SDS011;58032;49.820;6.274;2023-04-25T12:24:50;5.40;;;2.00;;
70505;SDS011;58032;49.820;6.274;2023-04-25T12:27:17;5.63;;;2.17;;
70505;SDS011;58032;49.820;6.274;2023-04-25T12:29:52;8.07;;;1.85;;
70505;SDS011;58032;49.820;6.274;2023-04-25T12:32:20;8.80;;;1.63;;
70505;SDS011;58032;49.820;6.274;2023-04-25T12:34:47;3.72;;;1.25;;
70505;SDS011;58032;49.820;6.274;2023-04-25T12:37:14;3.47;;;1.17;;
70505;SDS011;58032;49.820;6.274;2023-04-25T12:39:41;3.47;;;1.42;;
70505;SDS011;58032;49.820;6.274;2023-04-25T12:42:08;4.93;;;1.48;;
70505;SDS011;58032;49.820;6.274;2023-04-25T12:44:38;6.18;;;1.75;;
70505;SDS011;58032;49.820;6.274;2023-04-25T12:47:05;8.45;;;1.45;;
70505;SDS011;58032;49.820;6.274;2023-04-25T12:49:32;7.03;;;1.70;;
70505;SDS011;58032;49.820;6.274;2023-04-25T12:51:59;5.00;;;1.30;;
70505;SDS011;58032;49.820;6.274;2023-04-25T12:54:26;7.55;;;1.52;;
70505;SDS011;58032;49.820;6.274;2023-04-25T12:56:53;6.38;;;1.35;;
70505;SDS011;58032;49.820;6.274;2023-04-25T12:59:21;6.45;;;1.30;;
70505;SDS011;58032;49.820;6.274;2023-04-25T13:01:48;6.63;;;1.43;;
70505;SDS011;58032;49.820;6.274;2023-04-25T13:04:15;5.22;;;1.42;;
70505;SDS011;58032;49.820;6.274;2023-04-25T13:06:42;6.80;;;1.42;;
70505;SDS011;58032;49.820;6.274;2023-04-25T13:09:09;4.57;;;1.27;;
70505;SDS011;58032;49.820;6.274;2023-04-25T13:11:36;5.05;;;1.30;;
70505;SDS011;58032;49.820;6.274;2023-04-25T13:14:04;6.07;;;1.45;;
70505;SDS011;58032;49.820;6.274;2023-04-25T13:16:31;8.57;;;1.30;;
70505;SDS011;58032;49.820;6.274;2023-04-25T13:18:58;5.25;;;1.38;;
70505;SDS011;58032;49.820;6.274;2023-04-25T13:21:26;3.30;;;1.30;;
70505;SDS011;58032;49.820;6.274;2023-04-25T13:23:53;5.18;;;1.50;;
70505;SDS011;58032;49.820;6.274;2023-04-25T13:26:20;6.88;;;1.30;;
70505;SDS011;58032;49.820;6.274;2023-04-25T13:28:47;7.93;;;1.60;;
70505;SDS011;58032;49.820;6.274;2023-04-25T13:31:14;5.88;;;1.70;;
70505;SDS011;58032;49.820;6.274;2023-04-25T13:33:40;4.10;;;1.33;;
70505;SDS011;58032;49.820;6.274;2023-04-25T13:36:07;5.28;;;1.73;;
70505;SDS011;58032;49.820;6.274;2023-04-25T13:38:34;4.10;;;1.25;;
70505;SDS011;58032;49.820;6.274;2023-04-25T13:41:01;4.32;;;1.13;;
70505;SDS011;58032;49.820;6.274;2023-04-25T13:43:28;6.80;;;1.45;;
70505;SDS011;58032;49.820;6.274;2023-04-25T13:45:55;6.82;;;1.02;;
70505;SDS011;58032;49.820;6.274;2023-04-25T13:48:23;7.93;;;1.42;;
70505;SDS011;58032;49.820;6.274;2023-04-25T13:50:50;5.50;;;1.40;;
70505;SDS011;58032;49.820;6.274;2023-04-25T13:53:17;5.87;;;1.27;;
70505;SDS011;58032;49.820;6.274;2023-04-25T13:55:44;7.38;;;1.70;;
70505;SDS011;58032;49.820;6.274;2023-04-25T13:58:12;4.00;;;1.25;;
70505;SDS011;58032;49.820;6.274;2023-04-25T14:00:39;5.68;;;1.58;;
70505;SDS011;58032;49.820;6.274;2023-04-25T14:03:08;3.90;;;1.50;;
70505;SDS011;58032;49.820;6.274;2023-04-25T14:05:35;5.23;;;1.70;;
70505;SDS011;58032;49.820;6.274;2023-04-25T14:08:07;4.82;;;1.73;;
70505;SDS011;58032;49.820;6.274;2023-04-25T14:10:35;5.50;;;1.60;;
70505;SDS011;58032;49.820;6.274;2023-04-25T14:13:02;7.57;;;2.33;;
70505;SDS011;58032;49.820;6.274;2023-04-25T14:15:30;5.97;;;1.67;;
70505;SDS011;58032;49.820;6.274;2023-04-25T14:17:58;6.90;;;1.90;;
70505;SDS011;58032;49.820;6.274;2023-04-25T14:20:26;6.13;;;1.60;;
70505;SDS011;58032;49.820;6.274;2023-04-25T14:22:53;5.72;;;1.98;;
70505;SDS011;58032;49.820;6.274;2023-04-25T14:25:22;5.25;;;1.60;;
70505;SDS011;58032;49.820;6.274;2023-04-25T14:27:49;4.68;;;1.60;;
70505;SDS011;58032;49.820;6.274;2023-04-25T14:30:17;4.47;;;1.67;;
70505;SDS011;58032;49.820;6.274;2023-04-25T14:32:44;5.85;;;1.35;;
70505;SDS011;58032;49.820;6.274;2023-04-25T14:35:12;5.10;;;1.70;;
70505;SDS011;58032;49.820;6.274;2023-04-25T14:37:39;4.30;;;1.45;;
70505;SDS011;58032;49.820;6.274;2023-04-25T14:40:06;5.70;;;2.47;;
70505;SDS011;58032;49.820;6.274;2023-04-25T14:42:36;4.40;;;1.30;;
70505;SDS011;58032;49.820;6.274;2023-04-25T14:45:04;7.57;;;1.23;;
70505;SDS011;58032;49.820;6.274;2023-04-25T14:47:36;5.63;;;1.83;;
70505;SDS011;58032;49.820;6.274;2023-04-25T14:50:04;5.45;;;1.73;;
70505;SDS011;58032;49.820;6.274;2023-04-25T14:52:33;7.28;;;2.33;;
70505;SDS011;58032;49.820;6.274;2023-04-25T14:55:04;6.57;;;2.23;;
70505;SDS011;58032;49.820;6.274;2023-04-25T14:57:34;3.55;;;1.02;;
70505;SDS011;58032;49.820;6.274;2023-04-25T15:00:01;3.63;;;1.40;;
70505;SDS011;58032;49.820;6.274;2023-04-25T15:02:32;2.97;;;0.95;;
70505;SDS011;58032;49.820;6.274;2023-04-25T15:05:01;4.22;;;1.45;;
70505;SDS011;58032;49.820;6.274;2023-04-25T15:07:32;7.67;;;1.57;;
70505;SDS011;58032;49.820;6.274;2023-04-25T15:10:02;5.47;;;1.67;;
70505;SDS011;58032;49.820;6.274;2023-04-25T15:12:33;4.78;;;1.77;;
70505;SDS011;58032;49.820;6.274;2023-04-25T15:15:01;5.25;;;1.55;;
70505;SDS011;58032;49.820;6.274;2023-04-25T15:17:30;7.18;;;1.50;;